createdAt,value
2019-02-25T00:02:52.167Z,2.30
2019-02-25T00:05:54.367Z,2.30
2019-02-25T00:08:56.647Z,2.20
2019-02-25T00:11:58.875Z,2.20
2019-02-25T00:15:01.135Z,2.10
2019-02-25T00:18:03.392Z,2.10
2019-02-25T00:21:05.633Z,2.10
2019-02-25T00:24:07.883Z,2.00
2019-02-25T00:27:10.124Z,2.00
2019-02-25T00:30:12.373Z,2.00
2019-02-25T00:33:14.581Z,2.00
2019-02-25T00:36:16.789Z,1.90
2019-02-25T00:39:19.147Z,1.90
2019-02-25T00:42:21.527Z,1.90
2019-02-25T00:45:23.850Z,1.90
2019-02-25T00:48:26.246Z,1.80
2019-02-25T00:51:28.532Z,1.80
2019-02-25T00:54:30.756Z,1.80
2019-02-25T00:57:33.004Z,1.70
2019-02-25T01:00:35.279Z,1.70
2019-02-25T01:03:37.549Z,1.60
2019-02-25T01:06:39.876Z,1.70
2019-02-25T01:09:42.226Z,1.60
2019-02-25T01:12:45.177Z,1.60
2019-02-25T01:15:47.463Z,1.60
2019-02-25T01:18:49.914Z,1.60
2019-02-25T01:21:52.211Z,1.60
2019-02-25T01:24:54.511Z,1.60
2019-02-25T01:27:56.837Z,1.60
2019-02-25T01:30:59.128Z,1.60
2019-02-25T01:34:01.448Z,1.60
2019-02-25T01:37:03.802Z,1.50
2019-02-25T01:40:06.980Z,1.60
2019-02-25T01:43:09.240Z,1.50
2019-02-25T01:46:11.556Z,1.50
2019-02-25T01:49:13.807Z,1.50
2019-02-25T01:52:16.080Z,1.50
2019-02-25T01:55:18.415Z,1.50
2019-02-25T01:58:20.759Z,1.50
2019-02-25T02:01:23.063Z,1.50
2019-02-25T02:04:25.445Z,1.50
2019-02-25T02:07:27.684Z,1.50
2019-02-25T02:10:29.927Z,1.50
2019-02-25T02:13:32.263Z,1.50
2019-02-25T02:16:34.555Z,1.50
2019-02-25T02:19:36.839Z,1.50
2019-02-25T02:22:39.133Z,1.50
2019-02-25T02:25:41.414Z,1.50
2019-02-25T02:28:43.700Z,1.50
2019-02-25T02:31:46.003Z,1.40
2019-02-25T02:34:48.272Z,1.40
2019-02-25T02:37:50.560Z,1.40
2019-02-25T02:40:52.840Z,1.40
2019-02-25T02:43:55.121Z,1.30
2019-02-25T02:47:08.575Z,1.30
2019-02-25T02:50:13.999Z,1.30
2019-02-25T02:53:16.364Z,1.30
2019-02-25T02:56:18.646Z,1.30
2019-02-25T02:59:20.968Z,1.30
2019-02-25T03:02:23.235Z,1.20
2019-02-25T03:05:25.479Z,1.20
2019-02-25T03:08:27.845Z,1.20
2019-02-25T03:11:30.144Z,1.20
2019-02-25T03:14:32.460Z,1.20
2019-02-25T03:17:34.748Z,1.10
2019-02-25T03:20:37.133Z,1.20
2019-02-25T03:23:39.328Z,1.10
2019-02-25T03:26:41.598Z,1.10
2019-02-25T03:29:43.891Z,1.10
2019-02-25T03:32:46.234Z,1.10
2019-02-25T03:35:48.540Z,1.10
2019-02-25T03:38:50.836Z,1.10
2019-02-25T03:41:53.133Z,1.10
2019-02-25T03:44:55.515Z,1.10
2019-02-25T03:47:57.795Z,1.10
2019-02-25T03:51:00.061Z,1.10
2019-02-25T03:54:02.388Z,1.10
2019-02-25T03:57:04.748Z,1.10
2019-02-25T04:00:09.893Z,1.10
2019-02-25T04:03:12.195Z,1.10
2019-02-25T04:06:14.497Z,1.10
2019-02-25T04:09:16.805Z,1.10
2019-02-25T04:12:19.141Z,1.10
2019-02-25T04:15:23.592Z,1.10
2019-02-25T04:18:25.865Z,1.10
2019-02-25T04:21:28.170Z,1.10
2019-02-25T04:24:30.423Z,1.10
2019-02-25T04:27:32.722Z,1.10
2019-02-25T04:30:34.995Z,1.10
2019-02-25T04:33:37.274Z,1.10
2019-02-25T04:36:39.551Z,1.10
2019-02-25T04:39:41.823Z,1.00
2019-02-25T04:42:44.122Z,1.00
2019-02-25T04:45:46.448Z,1.00
2019-02-25T04:48:48.759Z,1.00
2019-02-25T04:51:51.048Z,1.00
2019-02-25T04:54:53.367Z,1.00
2019-02-25T04:57:55.683Z,1.00
2019-02-25T05:00:57.970Z,0.90
2019-02-25T05:04:00.293Z,0.90
2019-02-25T05:07:02.614Z,0.90
2019-02-25T05:10:05.478Z,0.90
2019-02-25T05:13:07.778Z,0.90
2019-02-25T05:16:10.725Z,0.90
2019-02-25T05:19:13.003Z,0.90
2019-02-25T05:22:15.325Z,0.90
2019-02-25T05:25:17.630Z,0.80
2019-02-25T05:28:19.871Z,0.90
2019-02-25T05:31:22.199Z,0.80
2019-02-25T05:34:24.497Z,0.90
2019-02-25T05:37:26.786Z,0.90
2019-02-25T05:40:29.100Z,0.90
2019-02-25T05:43:31.351Z,0.90
2019-02-25T05:46:33.631Z,0.90
2019-02-25T05:49:35.932Z,0.90
2019-02-25T05:52:38.249Z,0.90
2019-02-25T05:55:40.601Z,0.90
2019-02-25T05:58:42.937Z,0.90
2019-02-25T06:01:45.235Z,0.90
2019-02-25T06:04:47.599Z,0.90
2019-02-25T06:07:50.014Z,0.90
2019-02-25T06:10:52.319Z,0.90
2019-02-25T06:13:54.748Z,0.90
2019-02-25T06:16:57.070Z,0.90
2019-02-25T06:19:59.433Z,0.90
2019-02-25T06:23:01.727Z,0.90
2019-02-25T06:26:04.101Z,0.90
2019-02-25T06:29:06.363Z,0.90
2019-02-25T06:32:08.695Z,0.90
2019-02-25T06:35:11.127Z,0.90
2019-02-25T06:38:13.454Z,0.90
2019-02-25T06:41:15.715Z,0.90
2019-02-25T06:44:18.028Z,0.90
2019-02-25T06:47:20.363Z,0.90
2019-02-25T06:50:22.706Z,0.90
2019-02-25T06:53:25.055Z,0.90
2019-02-25T06:56:27.341Z,1.00
2019-02-25T06:59:29.671Z,1.00
2019-02-25T07:02:32.099Z,1.00
2019-02-25T07:05:38.989Z,1.10
2019-02-25T07:08:47.787Z,1.20
2019-02-25T07:11:55.551Z,1.30
2019-02-25T07:16:06.452Z,1.40
2019-02-25T07:19:13.323Z,1.40
2019-02-25T07:22:22.139Z,1.70
2019-02-25T07:26:01.051Z,1.80
2019-02-25T07:29:10.723Z,2.00
2019-02-25T07:33:24.572Z,2.10
2019-02-25T07:36:32.493Z,2.20
2019-02-25T07:39:40.480Z,2.40
2019-02-25T07:44:50.551Z,2.40
2019-02-25T07:47:57.431Z,2.50
2019-02-25T07:51:08.199Z,2.70
2019-02-25T07:54:17.064Z,2.70
2019-02-25T07:57:43.738Z,2.80
2019-02-25T08:00:51.124Z,2.90
2019-02-25T08:03:59.985Z,3.00
2019-02-25T08:07:06.868Z,3.10
2019-02-25T08:10:28.800Z,3.20
2019-02-25T08:13:36.480Z,3.40
2019-02-25T08:16:49.157Z,3.50
2019-02-25T08:20:01.884Z,3.60
2019-02-25T08:23:41.746Z,3.70
2019-02-25T08:26:58.575Z,3.80
2019-02-25T08:30:15.343Z,3.90
2019-02-25T08:33:30.211Z,4.00
2019-02-25T08:36:50.450Z,4.10
2019-02-25T08:40:06.879Z,4.20
2019-02-25T08:43:19.917Z,4.30
2019-02-25T08:46:27.545Z,4.40
2019-02-25T08:49:33.316Z,4.50
2019-02-25T08:52:35.692Z,4.60
2019-02-25T08:55:37.998Z,4.60
2019-02-25T08:58:40.391Z,4.70
2019-02-25T09:01:42.755Z,4.70
2019-02-25T09:04:45.083Z,4.80
2019-02-25T09:07:47.418Z,5.00
2019-02-25T09:10:49.815Z,5.10
2019-02-25T09:13:52.161Z,5.30
2019-02-25T09:16:54.499Z,5.40
2019-02-25T09:19:56.812Z,5.50
2019-02-25T09:22:59.126Z,5.60
2019-02-25T09:26:01.616Z,5.70
2019-02-25T09:29:04.199Z,5.70
2019-02-25T09:32:06.555Z,5.80
2019-02-25T09:35:09.991Z,5.80
2019-02-25T09:38:12.287Z,5.90
2019-02-25T09:41:14.602Z,6.00
2019-02-25T09:44:16.983Z,6.10
2019-02-25T09:47:19.290Z,6.20
2019-02-25T09:50:21.663Z,6.20
2019-02-25T09:53:23.938Z,6.20
2019-02-25T09:56:26.289Z,6.30
2019-02-25T09:59:28.678Z,6.40
2019-02-25T10:02:31.045Z,6.40
2019-02-25T10:05:33.399Z,6.50
2019-02-25T10:08:35.704Z,6.50
2019-02-25T10:12:08.764Z,6.60
2019-02-25T10:15:12.242Z,6.60
2019-02-25T10:18:14.616Z,6.70
2019-02-25T10:21:16.995Z,6.70
2019-02-25T10:24:19.435Z,6.80
2019-02-25T10:27:21.748Z,7.00
2019-02-25T10:30:24.171Z,7.10
2019-02-25T10:33:26.507Z,7.20
2019-02-25T10:36:28.836Z,7.30
2019-02-25T10:39:31.133Z,7.30
2019-02-25T10:42:35.180Z,7.40
2019-02-25T10:45:37.316Z,7.40
2019-02-25T10:48:38.007Z,7.40
2019-02-25T10:51:41.249Z,7.40
2019-02-25T10:54:42.568Z,7.50
2019-02-25T10:57:44.845Z,7.50
2019-02-25T11:00:47.087Z,7.50
2019-02-25T11:03:50.037Z,7.60
2019-02-25T11:06:51.676Z,7.70
2019-02-25T11:10:04.106Z,7.90
2019-02-25T11:13:06.444Z,7.90
2019-02-25T11:16:09.797Z,8.00
2019-02-25T11:19:11.024Z,8.10
2019-02-25T11:22:14.635Z,8.10
2019-02-25T11:25:15.547Z,8.20
2019-02-25T11:28:25.592Z,8.20
2019-02-25T11:31:22.856Z,8.30
2019-02-25T11:34:22.367Z,8.40
2019-02-25T11:37:26.587Z,8.50
2019-02-25T11:40:28.982Z,8.50
2019-02-25T11:43:29.381Z,8.60
2019-02-25T11:46:31.644Z,8.60
2019-02-25T11:49:33.888Z,8.60
2019-02-25T11:52:36.149Z,8.70
2019-02-25T11:55:38.606Z,8.70
2019-02-25T11:58:40.884Z,8.80
2019-02-25T12:01:43.130Z,8.90
2019-02-25T12:04:45.381Z,9.00
2019-02-25T12:07:47.688Z,9.00
2019-02-25T12:10:50.031Z,9.10
2019-02-25T12:13:52.287Z,9.10
2019-02-25T12:16:54.662Z,9.20
2019-02-25T12:19:57.287Z,9.30
2019-02-25T12:22:59.494Z,9.40
2019-02-25T12:26:01.748Z,9.40
2019-02-25T12:29:10.657Z,9.50
2019-02-25T12:32:06.435Z,9.50
2019-02-25T12:35:08.802Z,9.60
2019-02-25T12:38:11.048Z,9.70
2019-02-25T12:41:13.369Z,9.80
2019-02-25T12:44:15.655Z,9.90
2019-02-25T12:47:17.906Z,9.90
2019-02-25T12:50:20.269Z,10.00
2019-02-25T12:53:22.536Z,10.00
2019-02-25T12:56:24.814Z,10.00
2019-02-25T12:59:27.037Z,10.10
2019-02-25T13:02:29.275Z,10.10
2019-02-25T13:05:31.497Z,10.20
2019-02-25T13:08:33.795Z,10.20
2019-02-25T13:11:36.381Z,10.20
2019-02-25T13:14:38.700Z,10.20
2019-02-25T13:17:40.953Z,10.20
2019-02-25T13:20:43.249Z,10.30
2019-02-25T13:23:45.545Z,10.30
2019-02-25T13:26:47.806Z,10.40
2019-02-25T13:29:50.072Z,10.40
2019-02-25T13:32:52.298Z,10.50
2019-02-25T13:35:54.625Z,10.60
2019-02-25T13:38:56.909Z,10.60
2019-02-25T13:41:59.151Z,10.60
2019-02-25T13:45:01.427Z,10.80
2019-02-25T13:48:03.787Z,10.80
2019-02-25T13:51:06.029Z,10.90
2019-02-25T13:54:08.268Z,11.00
2019-02-25T13:57:10.607Z,11.10
2019-02-25T14:00:14.863Z,11.20
2019-02-25T14:03:17.116Z,11.20
2019-02-25T14:06:19.379Z,11.20
2019-02-25T14:09:21.680Z,11.20
2019-02-25T14:12:23.960Z,11.20
2019-02-25T14:15:26.287Z,11.20
2019-02-25T14:18:28.554Z,11.30
2019-02-25T14:21:31.727Z,11.30
2019-02-25T14:24:33.199Z,11.30
2019-02-25T14:27:35.495Z,11.40
2019-02-25T14:30:37.804Z,11.40
2019-02-25T14:33:40.107Z,11.40
2019-02-25T14:36:42.520Z,11.40
2019-02-25T14:39:49.218Z,11.40
2019-02-25T14:42:48.967Z,11.30
2019-02-25T14:45:53.609Z,11.40
2019-02-25T14:48:51.682Z,11.30
2019-02-25T14:51:53.952Z,11.40
2019-02-25T14:54:56.223Z,11.50
2019-02-25T14:58:02.180Z,11.50
2019-02-25T15:01:00.907Z,11.50
2019-02-25T15:04:04.334Z,11.40
2019-02-25T15:07:06.868Z,11.50
2019-02-25T15:10:09.175Z,11.50
2019-02-25T15:13:10.907Z,11.50
2019-02-25T15:16:13.195Z,11.50
2019-02-25T15:19:15.535Z,11.50
2019-02-25T15:22:17.780Z,11.50
2019-02-25T15:25:20.104Z,11.60
2019-02-25T15:28:22.542Z,11.60
2019-02-25T15:31:24.574Z,11.50
2019-02-25T15:34:26.801Z,11.50
2019-02-25T15:37:29.056Z,11.50
2019-02-25T15:40:31.353Z,11.50
2019-02-25T15:43:33.665Z,11.50
2019-02-25T15:46:35.939Z,11.60
2019-02-25T15:49:38.258Z,11.60
2019-02-25T15:52:40.544Z,11.70
2019-02-25T15:55:42.857Z,11.70
2019-02-25T15:58:47.095Z,11.70
2019-02-25T16:01:47.471Z,11.70
2019-02-25T16:04:49.719Z,11.70
2019-02-25T16:07:53.645Z,11.70
2019-02-25T16:10:55.739Z,11.70
2019-02-25T16:13:58.010Z,11.70
2019-02-25T16:16:58.833Z,11.70
2019-02-25T16:20:01.221Z,11.70
2019-02-25T16:23:05.852Z,11.70
2019-02-25T16:26:06.530Z,11.70
2019-02-25T16:29:09.459Z,11.60
2019-02-25T16:32:11.109Z,11.60
2019-02-25T16:35:13.408Z,11.60
2019-02-25T16:38:15.627Z,11.60
2019-02-25T16:41:26.934Z,11.60
2019-02-25T16:44:20.137Z,11.60
2019-02-25T16:47:31.982Z,11.50
2019-02-25T16:50:24.902Z,11.50
2019-02-25T16:53:27.111Z,11.40
2019-02-25T16:56:29.436Z,11.30
2019-02-25T16:59:31.731Z,11.20
2019-02-25T17:02:34.525Z,11.20
2019-02-25T17:05:37.916Z,11.10
2019-02-25T17:08:38.543Z,11.10
2019-02-25T17:11:42.228Z,11.00
2019-02-25T17:14:43.105Z,10.90
2019-02-25T17:17:45.361Z,10.90
2019-02-25T17:20:49.764Z,10.80
2019-02-25T17:23:51.570Z,10.80
2019-02-25T17:26:52.088Z,10.70
2019-02-25T17:29:55.602Z,10.70
2019-02-25T17:32:56.786Z,10.60
2019-02-25T17:35:59.056Z,10.60
2019-02-25T17:39:01.452Z,10.50
2019-02-25T17:42:05.592Z,10.50
2019-02-25T17:45:10.043Z,10.50
2019-02-25T17:48:13.444Z,10.40
2019-02-25T17:51:16.027Z,10.30
2019-02-25T17:54:16.920Z,10.30
2019-02-25T17:57:19.478Z,10.30
2019-02-25T18:00:27.037Z,10.30
2019-02-25T18:03:29.335Z,10.20
2019-02-25T18:06:31.931Z,10.10
2019-02-25T18:09:35.862Z,10.10
2019-02-25T18:12:38.933Z,10.00
2019-02-25T18:15:38.937Z,10.00
2019-02-25T18:18:41.307Z,10.00
2019-02-25T18:21:43.844Z,10.00
2019-02-25T18:24:45.876Z,9.90
2019-02-25T18:27:50.423Z,9.90
2019-02-25T18:30:50.448Z,9.80
2019-02-25T18:33:52.901Z,9.80
2019-02-25T18:36:55.526Z,9.70
2019-02-25T18:39:57.355Z,9.70
2019-02-25T18:43:00.393Z,9.70
2019-02-25T18:46:02.774Z,9.60
2019-02-25T18:49:05.648Z,9.60
2019-02-25T18:52:06.851Z,9.50
2019-02-25T18:55:11.140Z,9.40
2019-02-25T18:58:14.284Z,9.30
2019-02-25T19:01:16.031Z,9.30
2019-02-25T19:04:19.264Z,9.30
2019-02-25T19:07:19.872Z,9.30
2019-02-25T19:10:22.711Z,9.20
2019-02-25T19:13:25.257Z,9.20
2019-02-25T19:16:26.793Z,9.20
2019-02-25T19:19:31.297Z,9.10
2019-02-25T19:22:33.416Z,9.10
2019-02-25T19:25:34.306Z,9.10
2019-02-25T19:28:36.583Z,9.00
2019-02-25T19:31:39.871Z,9.00
2019-02-25T19:34:41.131Z,8.90
2019-02-25T19:37:44.512Z,8.90
2019-02-25T19:40:47.418Z,8.80
2019-02-25T19:43:47.976Z,8.80
2019-02-25T19:46:51.265Z,8.80
2019-02-25T19:49:52.539Z,8.80
2019-02-25T19:52:54.799Z,8.70
2019-02-25T19:55:57.067Z,8.70
2019-02-25T19:59:00.765Z,8.70
2019-02-25T20:02:01.603Z,8.60
2019-02-25T20:05:04.698Z,8.60
2019-02-25T20:08:06.643Z,8.50
2019-02-25T20:11:09.711Z,8.50
2019-02-25T20:14:11.254Z,8.50
2019-02-25T20:17:13.505Z,8.40
2019-02-25T20:20:15.803Z,8.30
2019-02-25T20:23:19.983Z,8.30
2019-02-25T20:26:22.210Z,8.20
2019-02-25T20:29:22.649Z,8.20
2019-02-25T20:32:24.908Z,8.10
2019-02-25T20:35:28.997Z,8.10
2019-02-25T20:38:30.068Z,8.00
2019-02-25T20:41:31.765Z,7.90
2019-02-25T20:44:34.887Z,7.90
2019-02-25T20:47:36.319Z,7.80
2019-02-25T20:50:38.538Z,7.70
2019-02-25T20:53:40.764Z,7.70
2019-02-25T20:56:44.414Z,7.60
2019-02-25T20:59:47.198Z,7.60
2019-02-25T21:02:47.548Z,7.50
2019-02-25T21:05:49.819Z,7.50
2019-02-25T21:08:52.068Z,7.50
2019-02-25T21:11:54.319Z,7.40
2019-02-25T21:14:56.576Z,7.40
2019-02-25T21:17:59.960Z,7.40
2019-02-25T21:21:01.089Z,7.30
2019-02-25T21:24:04.189Z,7.30
2019-02-25T21:27:06.431Z,7.30
2019-02-25T21:30:10.732Z,7.20
2019-02-25T21:33:15.342Z,7.20
2019-02-25T21:36:15.247Z,7.10
2019-02-25T21:39:19.043Z,7.10
2019-02-25T21:42:22.179Z,7.00
2019-02-25T21:45:22.321Z,7.00
2019-02-25T21:48:25.677Z,7.00
2019-02-25T21:51:28.107Z,7.00
2019-02-25T21:54:28.795Z,6.90
2019-02-25T21:57:32.944Z,6.90
2019-02-25T22:00:35.855Z,6.80
2019-02-25T22:03:39.350Z,6.80
2019-02-25T22:06:37.791Z,6.70
2019-02-25T22:09:41.854Z,6.70
2019-02-25T22:12:44.264Z,6.60
2019-02-25T22:15:45.246Z,6.60
2019-02-25T22:18:48.280Z,6.60
2019-02-25T22:21:51.590Z,6.50
2019-02-25T22:24:51.279Z,6.50
2019-02-25T22:27:53.551Z,6.40
2019-02-25T22:30:55.811Z,6.40
2019-02-25T22:33:58.015Z,6.30
2019-02-25T22:37:02.322Z,6.30
2019-02-25T22:40:02.567Z,6.20
2019-02-25T22:43:04.815Z,6.20
2019-02-25T22:46:08.980Z,6.10
2019-02-25T22:49:09.495Z,6.10
2019-02-25T22:52:11.588Z,6.00
2019-02-25T22:55:15.178Z,6.00
2019-02-25T22:58:17.051Z,5.90
2019-02-25T23:01:18.438Z,5.80
2019-02-25T23:04:22.537Z,5.80
2019-02-25T23:07:24.549Z,5.80
2019-02-25T23:10:25.165Z,5.70
2019-02-25T23:13:28.123Z,5.70
2019-02-25T23:16:29.663Z,5.60
2019-02-25T23:19:31.903Z,5.60
2019-02-25T23:22:35.041Z,5.60
2019-02-25T23:25:36.476Z,5.50
2019-02-25T23:28:38.699Z,5.50
2019-02-25T23:31:40.905Z,5.50
2019-02-25T23:34:44.917Z,5.40
2019-02-25T23:37:49.081Z,5.40
2019-02-25T23:40:47.739Z,5.40
2019-02-25T23:43:49.968Z,5.40
2019-02-25T23:46:55.245Z,5.30
2019-02-25T23:49:54.459Z,5.30
2019-02-25T23:52:56.723Z,5.20
2019-02-25T23:55:58.967Z,5.20
2019-02-25T23:59:01.187Z,5.20
